Chipman Lake, Vermont
Current Conditions -  °F | °C
As of 5:35 PM on Sunday 23 Nov 2014 (Local Time) from KRUT Reporting Station
Overcast Overcast  
Wind Chill: 41°   Ceiling: 8500
Heat Index: 46°   Visibility: 10mi
Dew Point: 37°   Wind: 13mph
Humidity: 71%   Direction: 120°ESE
Pressure: 30.06"   Gusts: NA
Location:  43.3492°N, 72.9643°W
Report Text: KRUT 232235Z 12011KT 10SM BKN085 OVC110 08/03 A3006 RMK AO1
Loading
Personal Weather Stations






























Interactive Weather Map New forecast layout! Learn more

10-Day Weather Forecast

Advertisements
Track Severe Weather on mobile